Time;durP1;ratioP1;P1;durP2;ratioP2;P2;SDS_P1;SDS_P2;PMS_P1;PMS_P2;Temp;Humidity;BMP_temperature;BMP_pressure;BME280_temperature;BME280_humidity;BME280_pressure;Samples;Min_cycle;Max_cycle;Signal;HPM_P1;HPM_P2
2021/12/13 00:02:07;;;;;;;14.20;6.20;;;22.00;50.30;;;;;;5215301;28;20100;-80
2021/12/13 00:04:45;;;;;;;14.30;5.88;;;22.00;50.40;;;;;;5194878;28;20060;-82
2021/12/13 00:07:22;;;;;;;10.93;6.05;;;22.00;50.30;;;;;;5210615;28;20433;-81
2021/12/13 00:09:58;;;;;;;11.25;6.47;;;22.00;50.30;;;;;;5214208;28;20409;-84
2021/12/13 00:12:38;;;;;;;13.25;5.95;;;22.00;50.30;;;;;;5212374;28;20124;-81
2021/12/13 00:15:17;;;;;;;9.85;5.45;;;22.00;50.30;;;;;;5214968;28;20049;-83
2021/12/13 00:17:53;;;;;;;8.88;5.22;;;22.00;50.30;;;;;;5196070;28;20237;-80
2021/12/13 00:20:36;;;;;;;11.00;5.03;;;22.00;50.20;;;;;;5210396;28;20509;-82
2021/12/13 00:23:17;;;;;;;10.10;4.75;;;22.00;50.90;;;;;;5190737;28;20482;-84
2021/12/13 00:25:53;;;;;;;10.50;5.30;;;22.00;50.30;;;;;;5210712;28;20049;-83
2021/12/13 00:28:31;;;;;;;10.07;5.00;;;22.00;50.20;;;;;;5212532;28;20045;-81
2021/12/13 00:31:25;;;;;;;11.95;5.20;;;21.90;50.20;;;;;;5211816;28;20494;-82
2021/12/13 00:34:20;;;;;;;9.07;5.28;;;21.90;50.20;;;;;;5214222;28;25386;-84
2021/12/13 00:37:09;;;;;;;;;;;21.90;50.20;;;;;;5214999;28;20045;-79
2021/12/13 00:39:51;;;;;;;9.90;4.32;;;21.90;50.20;;;;;;5210122;28;19935;-84
2021/12/13 00:42:29;;;;;;;9.10;4.85;;;21.90;50.30;;;;;;5212958;28;20029;-81
2021/12/13 00:45:08;;;;;;;7.13;4.43;;;21.90;50.30;;;;;;5215018;28;20041;-82
2021/12/13 00:47:42;;;;;;;9.45;4.57;;;21.90;50.40;;;;;;5214449;28;20052;-80
2021/12/13 00:50:35;;;;;;;10.18;4.32;;;21.90;50.50;;;;;;5215405;28;20053;-82
2021/12/13 00:53:09;;;;;;;10.73;3.70;;;21.90;50.40;;;;;;5210346;28;20060;-81
2021/12/13 00:55:43;;;;;;;11.85;4.18;;;21.90;50.40;;;;;;5189200;28;20048;-83
2021/12/13 00:58:19;;;;;;;7.70;4.35;;;21.90;50.30;;;;;;5209918;28;20040;-81
2021/12/13 01:01:04;;;;;;;8.45;3.72;;;21.90;50.30;;;;;;5200330;28;20053;-81
2021/12/13 01:03:47;;;;;;;10.40;3.85;;;21.90;50.40;;;;;;5212153;28;20049;-82
2021/12/13 01:06:54;;;;;;;8.35;4.22;;;21.90;50.30;;;;;;5207347;28;20123;-81
2021/12/13 01:09:57;;;;;;;6.60;4.03;;;21.90;50.30;;;;;;5207917;28;20052;-81
2021/12/13 01:12:29;;;;;;;7.40;3.90;;;21.90;50.30;;;;;;5199904;28;20041;-84
2021/12/13 01:15:14;;;;;;;7.50;4.00;;;21.80;50.30;;;;;;5199353;28;20060;-82
2021/12/13 01:20:42;;;;;;;7.63;3.45;;;21.80;50.30;;;;;;5210139;28;20052;-81
2021/12/13 01:23:39;;;;;;;5.82;3.33;;;21.90;50.30;;;;;;5213921;28;20044;-81
2021/12/13 01:29:00;;;;;;;7.55;3.40;;;21.90;50.30;;;;;;5205904;28;20286;-81
2021/12/13 01:31:43;;;;;;;8.07;3.50;;;21.80;50.30;;;;;;5213125;28;20469;-79
2021/12/13 01:34:17;;;;;;;5.60;3.47;;;21.90;50.40;;;;;;5173930;28;20052;-84
2021/12/13 01:37:02;;;;;;;6.30;3.22;;;21.80;50.40;;;;;;5211972;28;20061;-83
2021/12/13 01:39:40;;;;;;;5.40;2.90;;;21.80;50.30;;;;;;5213753;28;20048;-82
2021/12/13 01:42:29;;;;;;;8.50;3.22;;;21.80;50.40;;;;;;5211504;28;20052;-82
2021/12/13 01:45:07;;;;;;;5.30;3.10;;;21.80;50.30;;;;;;5201421;28;20216;-82
2021/12/13 01:47:43;;;;;;;10.10;3.20;;;21.80;50.40;;;;;;5206253;28;20045;-81
2021/12/13 01:50:23;;;;;;;8.68;3.40;;;21.80;50.40;;;;;;5208464;28;20048;-83
2021/12/13 01:52:56;;;;;;;5.40;2.80;;;21.80;50.40;;;;;;5215045;28;20228;-80
2021/12/13 01:55:37;;;;;;;5.93;2.90;;;21.80;50.40;;;;;;5213548;28;20045;-82
2021/12/13 02:01:11;;;;;;;4.70;2.65;;;21.80;50.30;;;;;;5185148;28;20585;-82
2021/12/13 02:03:59;;;;;;;5.57;2.75;;;21.80;50.30;;;;;;5214212;28;20041;-82
2021/12/13 02:06:39;;;;;;;5.90;3.22;;;21.80;50.30;;;;;;5189877;28;20052;-83
2021/12/13 02:09:23;;;;;;;4.90;2.83;;;21.80;50.30;;;;;;5204988;28;20407;-80
2021/12/13 02:11:58;;;;;;;3.38;2.25;;;21.80;50.30;;;;;;5187072;28;20410;-81
2021/12/13 02:14:34;;;;;;;4.13;2.78;;;21.80;50.30;;;;;;5197370;28;20049;-80
2021/12/13 02:17:15;;;;;;;4.50;2.20;;;21.80;50.40;;;;;;5185301;28;20049;-80
2021/12/13 02:20:00;;;;;;;4.72;2.63;;;21.80;50.30;;;;;;5181810;28;20629;-80
2021/12/13 02:23:05;;;;;;;5.68;2.60;;;21.80;50.30;;;;;;5201482;28;20136;-80
2021/12/13 02:25:45;;;;;;;5.40;2.10;;;21.80;50.30;;;;;;5176726;28;20056;-83
2021/12/13 02:28:21;;;;;;;5.60;2.65;;;21.80;50.30;;;;;;5201091;28;20043;-83
2021/12/13 02:31:04;;;;;;;4.88;2.05;;;21.80;50.30;;;;;;5196179;28;20044;-81
2021/12/13 02:33:48;;;;;;;3.75;2.53;;;21.80;50.30;;;;;;5201291;28;20056;-81
2021/12/13 02:36:37;;;;;;;3.22;2.20;;;21.80;50.30;;;;;;5183105;28;20055;-82
2021/12/13 02:39:16;;;;;;;2.58;1.83;;;21.80;50.30;;;;;;5203419;28;20036;-84
2021/12/13 02:41:49;;;;;;;4.72;2.20;;;21.80;50.70;;;;;;5198215;28;20045;-83
2021/12/13 02:44:38;;;;;;;4.78;2.17;;;21.70;50.30;;;;;;5192556;28;20045;-82
2021/12/13 02:47:32;;;;;;;5.90;2.00;;;21.80;50.30;;;;;;5200098;28;20068;-84
2021/12/13 02:50:10;;;;;;;6.35;2.17;;;21.80;50.30;;;;;;5201853;28;20527;-82
2021/12/13 02:52:44;;;;;;;3.00;1.80;;;21.80;50.30;;;;;;5200518;28;20056;-83
2021/12/13 02:55:25;;;;;;;3.92;2.22;;;21.80;50.40;;;;;;5202903;28;20646;-81
2021/12/13 02:58:00;;;;;;;4.25;2.17;;;21.80;50.40;;;;;;5174982;28;20450;-82
2021/12/13 03:01:06;;;;;;;3.20;2.03;;;21.80;50.40;;;;;;5198163;28;20051;-81
2021/12/13 03:03:44;;;;;;;2.88;1.90;;;21.80;50.40;;;;;;5189672;28;20056;-81
2021/12/13 03:06:21;;;;;;;2.33;1.70;;;21.70;50.40;;;;;;5194427;28;20057;-82
2021/12/13 03:08:59;;;;;;;2.70;1.70;;;21.70;50.30;;;;;;5199530;28;20424;-81
2021/12/13 03:11:34;;;;;;;4.05;2.10;;;21.70;50.30;;;;;;5197995;28;20049;-80
2021/12/13 03:14:13;;;;;;;2.60;1.60;;;21.70;50.30;;;;;;5192710;28;20249;-82
2021/12/13 03:17:09;;;;;;;2.45;1.60;;;21.70;50.30;;;;;;5176949;28;20041;-83
2021/12/13 03:19:41;;;;;;;3.00;2.00;;;21.70;50.30;;;;;;5172767;28;20619;-82
2021/12/13 03:22:38;;;;;;;3.17;1.75;;;21.70;50.30;;;;;;5198658;28;20798;-85
2021/12/13 03:25:22;;;;;;;2.90;1.63;;;21.70;50.20;;;;;;5189308;28;20072;-83
2021/12/13 03:28:13;;;;;;;4.25;1.77;;;21.70;50.40;;;;;;5194384;28;20049;-84
2021/12/13 03:30:55;;;;;;;3.28;1.90;;;21.70;50.40;;;;;;5188805;28;20060;-83
2021/12/13 03:33:33;;;;;;;2.45;1.58;;;21.70;50.50;;;;;;5193193;28;20052;-81
2021/12/13 03:36:13;;;;;;;2.15;1.70;;;21.70;50.50;;;;;;5175348;28;20052;-83
2021/12/13 03:38:50;;;;;;;6.35;1.83;;;21.70;50.50;;;;;;5170256;28;20239;-83
2021/12/13 03:41:25;;;;;;;3.85;1.63;;;21.70;50.50;;;;;;5190546;28;20049;-84
2021/12/13 03:44:02;;;;;;;3.95;1.70;;;21.70;50.60;;;;;;5187819;28;20386;-85
2021/12/13 03:46:36;;;;;;;8.43;1.88;;;21.70;50.60;;;;;;5181619;28;20045;-85
2021/12/13 03:49:10;;;;;;;4.82;2.13;;;21.70;50.60;;;;;;5190748;28;20049;-81
2021/12/13 03:51:42;;;;;;;;;;;21.70;50.60;;;;;;5187339;28;20384;-85
2021/12/13 03:54:17;;;;;;;2.75;1.95;;;21.70;50.60;;;;;;5192015;28;19925;-85
2021/12/13 03:56:50;;;;;;;5.82;1.90;;;21.70;50.70;;;;;;5168243;28;20056;-84
2021/12/13 03:59:27;;;;;;;3.40;1.40;;;21.70;50.80;;;;;;5192911;28;20033;-83
2021/12/13 04:02:06;;;;;;;4.75;1.80;;;21.70;50.70;;;;;;5195643;28;20045;-84
2021/12/13 04:04:44;;;;;;;1.85;1.52;;;21.70;50.80;;;;;;5199000;28;20049;-80
2021/12/13 04:07:22;;;;;;;3.15;1.65;;;21.70;50.70;;;;;;5166241;28;20500;-82
2021/12/13 04:09:58;;;;;;;3.53;1.48;;;21.70;50.70;;;;;;5190706;28;20053;-83
2021/12/13 04:12:41;;;;;;;3.35;1.50;;;21.70;50.70;;;;;;5198248;28;20402;-80
2021/12/13 04:15:22;;;;;;;3.67;1.50;;;21.70;50.70;;;;;;5191422;28;20041;-80
2021/12/13 04:18:14;;;;;;;3.05;1.50;;;21.70;50.70;;;;;;5193108;28;20053;-81
2021/12/13 04:20:46;;;;;;;4.00;1.70;;;21.70;50.70;;;;;;5200826;28;20045;-80
2021/12/13 04:23:22;;;;;;;1.73;1.30;;;21.70;50.70;;;;;;5201249;28;20067;-82
2021/12/13 04:25:59;;;;;;;2.53;1.20;;;21.70;50.70;;;;;;5204560;28;20434;-83
2021/12/13 04:28:40;;;;;;;3.45;1.70;;;21.70;50.70;;;;;;5172158;28;20056;-81
2021/12/13 04:31:17;;;;;;;4.70;1.40;;;21.70;50.90;;;;;;5195400;28;20049;-82
2021/12/13 04:33:56;;;;;;;1.80;1.27;;;21.70;50.70;;;;;;5186586;28;20072;-83
2021/12/13 04:36:33;;;;;;;1.80;1.05;;;21.70;50.70;;;;;;5188574;28;20060;-81
2021/12/13 04:39:13;;;;;;;2.88;1.52;;;21.70;50.70;;;;;;5190140;28;20048;-84
2021/12/13 04:41:48;;;;;;;3.28;1.50;;;21.70;50.70;;;;;;5198137;28;20492;-83
2021/12/13 04:44:34;;;;;;;3.00;1.35;;;21.70;50.70;;;;;;5189651;28;20072;-82
2021/12/13 04:47:18;;;;;;;1.70;1.05;;;21.60;50.60;;;;;;5194643;28;20044;-82
2021/12/13 04:50:16;;;;;;;3.35;1.48;;;21.70;50.60;;;;;;5197707;28;20371;-82
2021/12/13 04:52:50;;;;;;;3.05;1.67;;;21.70;50.60;;;;;;5175924;28;21026;-82
2021/12/13 04:55:34;;;;;;;3.45;1.48;;;21.60;50.60;;;;;;5194129;28;20434;-81
2021/12/13 04:58:10;;;;;;;2.72;1.25;;;21.70;50.60;;;;;;5198165;28;20055;-81
2021/12/13 05:00:49;;;;;;;2.28;1.40;;;21.70;50.60;;;;;;5181594;28;20041;-81
2021/12/13 05:03:28;;;;;;;2.75;1.33;;;21.60;50.60;;;;;;5191153;28;20044;-84
2021/12/13 05:06:06;;;;;;;12.18;1.55;;;21.70;50.70;;;;;;5181540;28;20533;-81
2021/12/13 05:08:40;;;;;;;5.40;1.60;;;21.60;50.70;;;;;;5159308;28;20053;-82
2021/12/13 05:11:13;;;;;;;3.80;1.20;;;21.60;50.80;;;;;;5179251;28;20060;-81
2021/12/13 05:13:53;;;;;;;2.97;1.60;;;21.60;50.90;;;;;;5168304;28;20690;-83
2021/12/13 05:16:38;;;;;;;2.63;1.58;;;21.60;50.90;;;;;;5188618;28;20307;-81
2021/12/13 05:19:15;;;;;;;4.68;1.77;;;21.70;51.00;;;;;;5167390;28;20049;-83
2021/12/13 05:21:51;;;;;;;3.92;1.70;;;21.60;51.10;;;;;;5176285;28;20045;-82
2021/12/13 05:24:29;;;;;;;3.42;1.50;;;21.60;51.10;;;;;;5167046;28;20076;-83
2021/12/13 05:27:07;;;;;;;4.45;1.70;;;21.60;51.20;;;;;;5188232;28;20041;-83
2021/12/13 05:29:48;;;;;;;6.25;1.38;;;21.60;51.30;;;;;;5179238;28;20376;-82
2021/12/13 05:32:33;;;;;;;3.95;1.52;;;21.70;51.30;;;;;;5171001;28;21807;-80
2021/12/13 05:35:16;;;;;;;4.97;1.40;;;21.70;51.30;;;;;;5168441;28;20056;-81
2021/12/13 05:38:02;;;;;;;4.10;1.53;;;21.70;51.40;;;;;;5184359;28;20045;-83
2021/12/13 05:40:44;;;;;;;3.78;1.48;;;21.70;51.40;;;;;;5186499;28;20299;-84
2021/12/13 05:43:30;;;;;;;6.05;1.73;;;21.80;51.50;;;;;;5181698;28;20479;-81
2021/12/13 05:46:06;;;;;;;8.30;1.40;;;21.70;51.40;;;;;;5155541;28;20048;-84
2021/12/13 05:48:54;;;;;;;3.00;1.38;;;21.80;51.50;;;;;;5186628;28;20045;-83
2021/12/13 05:51:32;;;;;;;6.03;1.33;;;21.80;51.50;;;;;;5181105;28;20041;-83
2021/12/13 05:54:07;;;;;;;4.05;1.60;;;21.80;51.50;;;;;;5186397;28;20045;-83
2021/12/13 05:56:44;;;;;;;6.32;1.10;;;21.80;51.50;;;;;;5186904;28;20414;-81
2021/12/13 05:59:28;;;;;;;6.35;1.60;;;21.80;51.50;;;;;;5189681;28;20045;-83
2021/12/13 06:02:12;;;;;;;5.88;1.30;;;21.80;51.50;;;;;;5182184;28;20064;-81
2021/12/13 06:04:44;;;;;;;5.07;1.52;;;21.80;51.40;;;;;;5183307;28;20049;-79
2021/12/13 06:07:30;;;;;;;5.55;1.40;;;21.80;51.50;;;;;;5181837;28;20041;-80
2021/12/13 06:10:16;;;;;;;2.90;1.52;;;21.80;51.40;;;;;;5187999;28;20052;-81
2021/12/13 06:12:54;;;;;;;5.13;1.45;;;21.90;52.10;;;;;;5176430;28;21241;-81
2021/12/13 06:15:37;;;;;;;2.70;0.93;;;21.90;51.50;;;;;;5180847;28;20052;-82
2021/12/13 06:18:16;;;;;;;5.20;1.27;;;21.90;50.90;;;;;;5186332;28;20060;-83
2021/12/13 06:20:56;;;;;;;5.95;1.30;;;21.90;51.50;;;;;;5197906;28;20360;-81
2021/12/13 06:23:31;;;;;;;10.32;1.30;;;21.90;51.50;;;;;;5192009;28;20056;-80
2021/12/13 06:26:08;;;;;;;5.18;1.25;;;21.90;51.60;;;;;;5194315;28;20052;-82
2021/12/13 06:28:45;;;;;;;3.20;1.30;;;21.90;51.60;;;;;;5202187;28;20051;-81
2021/12/13 06:31:20;;;;;;;4.03;1.63;;;21.90;51.60;;;;;;5193902;28;20037;-82
2021/12/13 06:33:53;;;;;;;5.07;1.42;;;22.00;51.70;;;;;;5175007;28;20582;-81
2021/12/13 06:36:33;;;;;;;4.70;1.60;;;21.90;51.50;;;;;;5188227;28;20045;-82
2021/12/13 06:39:07;;;;;;;4.43;1.30;;;22.00;51.60;;;;;;5199730;28;20067;-81
2021/12/13 06:41:59;;;;;;;4.68;1.33;;;22.00;51.70;;;;;;5201974;28;20490;-81
2021/12/13 06:44:44;;;;;;;4.85;1.20;;;22.00;51.70;;;;;;5201968;28;20044;-81
2021/12/13 06:47:22;;;;;;;6.93;1.23;;;22.00;51.70;;;;;;5187514;28;20037;-80
2021/12/13 06:49:58;;;;;;;3.50;1.42;;;22.00;51.70;;;;;;5206675;28;20495;-81
2021/12/13 06:52:36;;;;;;;4.72;1.58;;;22.00;51.70;;;;;;5204847;28;20044;-81
2021/12/13 06:55:15;;;;;;;6.72;1.52;;;22.00;51.80;;;;;;5207948;28;20056;-81
2021/12/13 06:57:54;;;;;;;3.08;1.40;;;22.00;51.70;;;;;;5203926;28;20052;-80
2021/12/13 07:00:32;;;;;;;8.07;1.38;;;22.00;51.80;;;;;;5205402;28;20064;-81
2021/12/13 07:03:11;;;;;;;5.38;1.23;;;22.00;51.80;;;;;;5195296;28;20619;-81
2021/12/13 07:05:49;;;;;;;3.35;1.25;;;22.00;51.80;;;;;;5204202;28;20404;-81
2021/12/13 07:08:37;;;;;;;2.33;1.48;;;22.00;51.80;;;;;;5200700;28;20046;-81
2021/12/13 07:11:18;;;;;;;5.22;1.88;;;22.00;51.80;;;;;;5185882;28;20053;-81
2021/12/13 07:14:06;;;;;;;2.17;1.02;;;22.00;51.90;;;;;;5194133;28;20044;-81
2021/12/13 07:16:39;;;;;;;2.72;1.50;;;22.10;52.00;;;;;;5181405;28;20045;-81
2021/12/13 07:19:25;;;;;;;3.22;1.60;;;22.00;51.90;;;;;;5203876;28;20479;-81
2021/12/13 07:22:03;;;;;;;4.30;1.00;;;22.10;51.90;;;;;;5204361;28;20053;-81
2021/12/13 07:24:49;;;;;;;3.72;1.55;;;22.10;51.90;;;;;;5203423;28;20052;-81
2021/12/13 07:27:29;;;;;;;2.72;1.17;;;22.10;52.00;;;;;;5191774;28;20052;-80
2021/12/13 07:30:14;;;;;;;12.90;2.53;;;22.10;52.10;;;;;;5201472;28;20079;-80
2021/12/13 07:32:58;;;;;;;7.53;1.98;;;22.10;52.30;;;;;;5198753;28;20052;-80
2021/12/13 07:35:45;;;;;;;18.50;1.95;;;22.10;52.40;;;;;;5202157;28;20057;-81
2021/12/13 07:38:17;;;;;;;22.40;4.85;;;22.10;52.50;;;;;;5192399;28;20049;-81
2021/12/13 07:40:57;;;;;;;65.28;18.90;;;22.10;52.40;;;;;;5181851;28;20052;-80
2021/12/13 07:43:40;;;;;;;132.35;47.42;;;22.10;52.30;;;;;;5201460;28;20482;-81
2021/12/13 07:46:19;;;;;;;121.40;48.75;;;22.10;52.40;;;;;;5201286;28;20856;-81
2021/12/13 07:48:57;;;;;;;132.55;47.05;;;22.20;52.30;;;;;;5194293;28;20049;-81
2021/12/13 07:51:33;;;;;;;118.82;43.92;;;22.20;52.30;;;;;;5198022;28;20057;-80
2021/12/13 07:54:10;;;;;;;98.85;40.28;;;22.10;52.20;;;;;;5202282;28;20052;-80
2021/12/13 07:56:56;;;;;;;104.18;38.47;;;22.20;52.10;;;;;;5202965;28;20056;-80
2021/12/13 07:59:33;;;;;;;86.68;35.28;;;22.20;52.00;;;;;;5202363;28;20054;-80
2021/12/13 08:02:15;;;;;;;87.00;33.20;;;22.20;51.90;;;;;;5183678;28;20435;-80
2021/12/13 08:05:08;;;;;;;71.25;27.63;;;22.10;51.80;;;;;;5194763;28;20095;-80
2021/12/13 08:08:24;;;;;;;66.90;25.00;;;22.10;51.80;;;;;;5207724;28;20077;-80
2021/12/13 08:10:59;;;;;;;54.65;22.42;;;22.10;51.80;;;;;;5204347;28;20053;-80
2021/12/13 08:13:32;;;;;;;62.22;21.25;;;22.10;51.70;;;;;;5201228;28;20057;-80
2021/12/13 08:16:08;;;;;;;50.37;19.37;;;22.20;51.70;;;;;;5202428;28;20044;-80
2021/12/13 08:18:43;;;;;;;48.70;18.42;;;22.10;51.60;;;;;;5205921;28;20299;-80
2021/12/13 08:21:24;;;;;;;43.08;17.95;;;22.10;51.60;;;;;;5206429;28;20504;-80
2021/12/13 08:24:00;;;;;;;39.83;16.92;;;22.20;51.70;;;;;;5205246;28;20049;-80
2021/12/13 08:26:36;;;;;;;39.50;15.35;;;22.20;51.50;;;;;;5203221;28;20128;-80
2021/12/13 08:29:17;;;;;;;31.90;13.32;;;22.20;51.50;;;;;;5197136;28;20790;-80
2021/12/13 08:31:54;;;;;;;34.50;12.68;;;22.20;51.50;;;;;;5201480;28;20482;-80
2021/12/13 08:34:45;;;;;;;29.33;11.27;;;22.20;51.40;;;;;;5205213;28;20606;-80
2021/12/13 08:37:30;;;;;;;29.90;10.80;;;22.20;51.40;;;;;;5208569;28;20057;-81
2021/12/13 08:40:13;;;;;;;29.08;10.90;;;22.20;51.30;;;;;;5203614;28;20075;-80
2021/12/13 08:42:48;;;;;;;22.17;9.05;;;22.20;51.30;;;;;;5183398;28;20084;-80
2021/12/13 08:45:39;;;;;;;24.27;8.85;;;22.20;51.30;;;;;;5188375;28;20052;-80
2021/12/13 08:48:16;;;;;;;27.67;10.00;;;22.10;51.20;;;;;;5189258;28;20043;-80
2021/12/13 08:50:54;;;;;;;24.73;8.02;;;22.20;51.30;;;;;;5207586;28;20236;-80
2021/12/13 08:53:35;;;;;;;18.60;7.20;;;22.20;51.20;;;;;;5180982;28;20056;-80
2021/12/13 08:56:13;;;;;;;19.20;7.38;;;22.20;51.20;;;;;;5200471;28;20501;-80
2021/12/13 08:59:01;;;;;;;18.60;7.05;;;22.20;51.20;;;;;;5185118;28;20917;-80
2021/12/13 09:01:53;;;;;;;16.48;6.60;;;22.20;51.20;;;;;;5204901;28;20045;-80
2021/12/13 09:04:31;;;;;;;21.45;7.22;;;22.10;51.10;;;;;;5209600;28;20210;-81
2021/12/13 09:07:09;;;;;;;12.80;6.13;;;22.20;51.10;;;;;;5203720;28;20286;-81
2021/12/13 09:09:45;;;;;;;11.48;5.05;;;22.10;51.10;;;;;;5206586;28;20509;-80
2021/12/13 09:12:32;;;;;;;14.32;5.28;;;22.10;51.10;;;;;;5197719;28;20053;-80
2021/12/13 09:15:17;;;;;;;15.02;5.78;;;22.20;51.10;;;;;;5204480;28;20501;-80
2021/12/13 09:17:51;;;;;;;12.43;5.63;;;22.20;51.10;;;;;;5188551;28;20052;-80
2021/12/13 09:20:29;;;;;;;12.90;4.95;;;22.20;51.10;;;;;;5196188;28;20044;-80
2021/12/13 09:23:21;;;;;;;10.93;4.45;;;22.20;51.10;;;;;;5201982;28;20051;-80
2021/12/13 09:26:02;;;;;;;10.65;4.25;;;22.20;51.00;;;;;;5198989;28;20049;-80
2021/12/13 09:28:45;;;;;;;11.25;4.60;;;22.20;51.10;;;;;;5205709;28;20402;-80
2021/12/13 09:31:23;;;;;;;12.13;4.83;;;22.20;51.00;;;;;;5205579;28;20049;-80
2021/12/13 09:34:00;;;;;;;10.85;3.97;;;22.20;51.00;;;;;;5203085;28;20307;-80
2021/12/13 09:36:36;;;;;;;10.82;4.20;;;22.20;51.00;;;;;;5195771;28;26963;-80
2021/12/13 09:39:22;;;;;;;11.27;3.90;;;22.20;51.00;;;;;;5209020;28;20041;-80
2021/12/13 09:42:12;;;;;;;10.05;3.65;;;22.20;51.00;;;;;;5208293;28;21005;-80
2021/12/13 09:44:55;;;;;;;9.68;3.53;;;22.20;51.00;;;;;;5194731;28;20106;-80
2021/12/13 09:47:36;;;;;;;9.68;3.80;;;22.20;50.90;;;;;;5202844;28;20044;-80
2021/12/13 09:50:14;;;;;;;9.05;4.22;;;22.20;50.90;;;;;;5202225;28;20045;-80
2021/12/13 09:52:58;;;;;;;6.80;3.35;;;22.20;50.90;;;;;;5206128;28;20418;-81
2021/12/13 09:55:49;;;;;;;8.75;3.72;;;22.20;50.80;;;;;;5207935;28;20502;-80
2021/12/13 09:58:33;;;;;;;8.95;3.20;;;22.20;50.80;;;;;;5204571;28;20049;-81
2021/12/13 10:01:23;;;;;;;7.30;3.47;;;22.20;50.90;;;;;;5197284;28;20287;-80
2021/12/13 10:04:01;;;;;;;12.23;3.35;;;22.20;50.80;;;;;;5200147;28;20147;-80
2021/12/13 10:06:44;;;;;;;8.52;3.30;;;22.20;50.90;;;;;;5208765;28;20037;-80
2021/12/13 10:09:26;;;;;;;10.32;3.38;;;22.20;50.80;;;;;;5180244;28;20049;-80
2021/12/13 10:12:08;;;;;;;7.07;3.17;;;22.20;50.80;;;;;;5187110;28;20048;-80
2021/12/13 10:14:46;;;;;;;7.22;3.17;;;22.20;50.80;;;;;;5204073;28;20216;-80
2021/12/13 10:17:22;;;;;;;8.85;2.83;;;22.20;50.80;;;;;;5202488;28;20600;-80
2021/12/13 10:19:58;;;;;;;4.95;2.45;;;22.20;50.80;;;;;;5204210;28;20101;-80
2021/12/13 10:22:32;;;;;;;9.18;3.40;;;22.20;50.80;;;;;;5192188;28;20045;-80
2021/12/13 10:25:19;;;;;;;7.60;2.67;;;22.20;50.90;;;;;;5195322;28;20046;-80
2021/12/13 10:27:52;;;;;;;8.48;3.08;;;22.20;50.80;;;;;;5178441;28;20048;-80
2021/12/13 10:30:47;;;;;;;8.55;3.33;;;22.20;50.80;;;;;;5194944;28;20045;-80
2021/12/13 10:33:22;;;;;;;42.70;15.85;;;22.20;50.90;;;;;;5200077;28;20037;-80
2021/12/13 10:35:55;;;;;;;123.90;47.13;;;22.20;51.10;;;;;;5181734;28;20430;-80
2021/12/13 10:38:44;;;;;;;200.95;81.55;;;22.20;51.30;;;;;;5193878;28;20292;-80
2021/12/13 10:41:25;;;;;;;289.08;112.78;;;22.20;51.40;;;;;;5204703;28;20379;-80
2021/12/13 10:44:05;;;;;;;327.58;129.60;;;22.20;52.00;;;;;;5162652;28;20057;-80
2021/12/13 10:46:42;;;;;;;335.90;132.98;;;22.20;51.40;;;;;;5202092;28;20045;-80
2021/12/13 10:49:20;;;;;;;329.30;129.70;;;22.20;51.60;;;;;;5200375;28;20052;-80
2021/12/13 10:51:59;;;;;;;325.65;130.80;;;22.20;51.60;;;;;;5188213;28;20061;-80
2021/12/13 10:54:38;;;;;;;315.35;129.85;;;22.20;51.70;;;;;;5211711;28;20053;-80
2021/12/13 10:57:15;;;;;;;309.63;125.68;;;22.30;52.00;;;;;;5207542;28;20049;-80
2021/12/13 10:59:49;;;;;;;312.40;125.65;;;22.20;51.90;;;;;;5210972;28;20049;-80
2021/12/13 11:02:30;;;;;;;310.88;122.53;;;22.20;51.80;;;;;;5198577;28;20379;-80
2021/12/13 11:05:12;;;;;;;309.50;122.25;;;22.30;52.00;;;;;;5203156;28;20620;-80
2021/12/13 11:07:46;;;;;;;300.23;122.05;;;22.20;51.90;;;;;;5201695;28;20502;-79
2021/12/13 11:10:26;;;;;;;285.75;118.82;;;22.30;52.10;;;;;;5213347;28;20045;-80
2021/12/13 11:13:13;;;;;;;278.58;116.30;;;22.30;52.00;;;;;;5209058;28;20041;-80
2021/12/13 11:15:48;;;;;;;277.67;119.15;;;22.30;52.00;;;;;;5212674;28;20052;-81
2021/12/13 11:18:28;;;;;;;284.13;114.05;;;22.30;52.10;;;;;;5188291;28;20057;-80
2021/12/13 11:21:10;;;;;;;272.75;112.82;;;22.30;52.20;;;;;;5198734;28;20054;-79
2021/12/13 11:23:43;;;;;;;258.75;106.07;;;22.30;52.20;;;;;;5193131;28;20041;-81
2021/12/13 11:26:20;;;;;;;255.43;101.22;;;22.30;52.50;;;;;;5194622;28;20037;-80
2021/12/13 11:28:54;;;;;;;252.30;101.72;;;22.30;52.40;;;;;;5210727;28;20056;-80
2021/12/13 11:31:29;;;;;;;244.57;98.55;;;22.30;52.30;;;;;;5211559;28;20049;-80
2021/12/13 11:34:03;;;;;;;237.73;98.80;;;22.30;52.30;;;;;;5186443;28;20053;-79
2021/12/13 11:37:00;;;;;;;234.90;96.22;;;22.30;52.30;;;;;;5208314;28;26194;-81
2021/12/13 11:39:46;;;;;;;230.10;94.18;;;22.30;52.40;;;;;;5217363;28;20048;-80
2021/12/13 11:42:52;;;;;;;222.50;93.57;;;22.30;52.30;;;;;;5196180;28;20068;-80
2021/12/13 11:45:55;;;;;;;225.13;93.97;;;22.30;52.30;;;;;;5187976;28;20570;-81
2021/12/13 11:48:54;;;;;;;226.32;90.20;;;22.30;52.60;;;;;;5189936;28;20037;-80
2021/12/13 11:51:45;;;;;;;228.02;91.35;;;22.30;52.60;;;;;;5200370;28;20049;-80
2021/12/13 11:54:43;;;;;;;211.07;88.53;;;22.30;52.50;;;;;;5196880;28;20045;-80
2021/12/13 11:57:48;;;;;;;219.50;89.43;;;22.30;52.50;;;;;;5212215;28;20052;-79
2021/12/13 12:00:54;;;;;;;211.07;84.95;;;22.30;52.70;;;;;;5213393;28;20426;-80
2021/12/13 12:03:54;;;;;;;208.23;83.43;;;22.40;52.70;;;;;;5207526;28;20505;-80
2021/12/13 12:06:45;;;;;;;196.38;84.47;;;22.40;52.80;;;;;;5202494;28;20123;-79
2021/12/13 12:09:39;;;;;;;198.95;82.15;;;22.30;52.80;;;;;;5209184;28;20045;-81
2021/12/13 12:12:27;;;;;;;194.93;79.43;;;22.40;52.70;;;;;;5212092;28;20053;-79
2021/12/13 12:15:01;;;;;;;195.68;80.93;;;22.40;53.00;;;;;;5205162;28;20051;-80
2021/12/13 12:17:34;;;;;;;196.73;80.90;;;22.40;52.90;;;;;;5186909;28;20056;-80
2021/12/13 12:20:14;;;;;;;189.30;80.72;;;22.40;53.50;;;;;;5182012;28;20060;-80
2021/12/13 12:22:51;;;;;;;182.85;77.72;;;22.40;52.80;;;;;;5190184;28;20063;-81
2021/12/13 12:25:32;;;;;;;159.65;67.50;;;22.30;52.70;;;;;;5171791;28;20405;-81
2021/12/13 12:28:11;;;;;;;150.80;63.50;;;22.40;52.60;;;;;;5188608;28;20056;-81
2021/12/13 12:30:51;;;;;;;146.27;60.55;;;22.40;52.60;;;;;;5189779;28;20052;-81
2021/12/13 12:33:39;;;;;;;131.48;54.78;;;22.40;52.60;;;;;;5184762;28;20053;-81
2021/12/13 12:36:37;;;;;;;120.72;50.60;;;22.40;52.50;;;;;;5187752;28;20045;-78
2021/12/13 12:39:38;;;;;;;99.50;42.15;;;22.40;52.50;;;;;;5189780;28;20048;-81
2021/12/13 12:42:20;;;;;;;96.30;38.60;;;22.40;52.40;;;;;;5181245;28;20056;-80
2021/12/13 12:44:55;;;;;;;84.45;35.90;;;22.40;52.50;;;;;;5185668;28;20045;-81
2021/12/13 12:47:34;;;;;;;83.85;33.63;;;22.40;52.50;;;;;;5178354;28;20499;-81
2021/12/13 12:50:18;;;;;;;83.20;31.23;;;22.40;53.00;;;;;;5174038;28;20049;-80
2021/12/13 12:52:59;;;;;;;;;;;22.40;52.70;;;;;;5204093;28;20064;-79
2021/12/13 12:55:38;;;;;;;73.90;28.58;;;22.40;52.90;;;;;;5176967;28;20255;-80
2021/12/13 12:58:15;;;;;;;71.90;27.98;;;22.40;53.00;;;;;;5199578;28;20052;-80
2021/12/13 13:00:49;;;;;;;71.60;29.08;;;22.40;53.20;;;;;;5196317;28;20049;-81
2021/12/13 13:03:26;;;;;;;68.15;28.02;;;22.40;54.00;;;;;;5186993;28;20045;-80
2021/12/13 13:06:11;;;;;;;65.97;26.88;;;22.40;53.40;;;;;;5188708;28;20534;-80
2021/12/13 13:08:50;;;;;;;61.58;25.40;;;22.40;53.50;;;;;;5193418;28;20064;-80
2021/12/13 13:11:29;;;;;;;70.32;26.08;;;22.40;53.50;;;;;;5191657;28;20425;-80
2021/12/13 13:14:10;;;;;;;67.07;26.55;;;22.50;53.70;;;;;;5204457;28;20049;-80
2021/12/13 13:16:47;;;;;;;66.75;26.48;;;22.50;53.70;;;;;;5207798;28;20041;-81
2021/12/13 13:19:37;;;;;;;64.70;25.33;;;22.50;53.60;;;;;;5199674;28;20048;-80
2021/12/13 13:22:18;;;;;;;63.25;23.95;;;22.50;53.90;;;;;;5177763;28;20055;-79
2021/12/13 13:25:23;;;;;;;61.15;24.25;;;22.40;53.60;;;;;;5188717;28;20048;-80
2021/12/13 13:27:57;;;;;;;58.33;23.92;;;22.40;53.60;;;;;;5203923;28;20052;-80
2021/12/13 13:30:37;;;;;;;58.10;24.73;;;22.50;53.60;;;;;;5193038;28;20041;-80
2021/12/13 13:33:10;;;;;;;52.15;23.08;;;22.50;53.70;;;;;;5184287;28;20052;-80
2021/12/13 13:35:43;;;;;;;59.63;22.00;;;22.50;53.90;;;;;;5183966;28;20660;-81
2021/12/13 13:38:17;;;;;;;60.65;22.10;;;22.50;54.00;;;;;;5201864;28;20429;-80
2021/12/13 13:40:50;;;;;;;50.47;20.75;;;22.50;54.10;;;;;;5200962;28;20057;-81
2021/12/13 13:43:23;;;;;;;52.23;20.83;;;22.50;54.20;;;;;;5187547;28;20041;-82
2021/12/13 13:45:56;;;;;;;61.38;20.45;;;22.40;54.30;;;;;;5166089;28;20044;-79
2021/12/13 13:48:33;;;;;;;69.05;20.85;;;22.50;54.70;;;;;;5196742;28;20055;-78
2021/12/13 13:51:09;;;;;;;168.65;24.40;;;22.60;57.60;;;;;;5196295;28;20402;-90
2021/12/13 13:53:47;;;;;;;68.65;17.58;;;22.70;56.50;;;;;;5168121;28;20044;-89
2021/12/13 13:56:24;;;;;;;65.15;16.27;;;22.60;55.50;;;;;;5164510;28;20060;-91
2021/12/13 13:59:05;;;;;;;60.35;15.45;;;22.70;55.50;;;;;;5176903;28;20058;-85